sensor_id;sensor_type;location;lat;lon;timestamp;temperature;humidity
21489;DHT22;10906;45.194;5.684;2024-03-07T06:02:22;2.90;99.90
21489;DHT22;10906;45.194;5.684;2024-03-07T06:05:06;4.30;99.90
21489;DHT22;10906;45.194;5.684;2024-03-07T06:07:56;4.30;99.90
21489;DHT22;10906;45.194;5.684;2024-03-07T06:10:42;2.70;99.90
21489;DHT22;10906;45.194;5.684;2024-03-07T06:13:26;3.70;99.90
21489;DHT22;10906;45.194;5.684;2024-03-07T06:16:11;2.80;99.90
21489;DHT22;10906;45.194;5.684;2024-03-07T06:18:55;2.80;99.90
21489;DHT22;10906;45.194;5.684;2024-03-07T06:21:40;2.80;99.90
21489;DHT22;10906;45.194;5.684;2024-03-07T06:24:25;3.60;99.90
21489;DHT22;10906;45.194;5.684;2024-03-07T06:27:11;3.60;99.90
21489;DHT22;10906;45.194;5.684;2024-03-07T06:30:11;4.50;99.90
21489;DHT22;10906;45.194;5.684;2024-03-07T06:32:56;3.10;99.90
21489;DHT22;10906;45.194;5.684;2024-03-07T06:35:41;4.30;99.90
21489;DHT22;10906;45.194;5.684;2024-03-07T06:38:27;4.50;99.90
21489;DHT22;10906;45.194;5.684;2024-03-07T06:41:11;4.10;99.90
21489;DHT22;10906;45.194;5.684;2024-03-07T06:43:57;4.20;99.90
21489;DHT22;10906;45.194;5.684;2024-03-07T07:24:00;2.90;99.90
21489;DHT22;10906;45.194;5.684;2024-03-07T07:26:45;3.80;99.90
21489;DHT22;10906;45.194;5.684;2024-03-07T07:29:29;4.60;99.90
21489;DHT22;10906;45.194;5.684;2024-03-07T07:32:14;4.00;99.90
21489;DHT22;10906;45.194;5.684;2024-03-07T07:34:58;4.00;99.90
21489;DHT22;10906;45.194;5.684;2024-03-07T07:37:50;4.10;99.90
21489;DHT22;10906;45.194;5.684;2024-03-07T07:40:39;5.30;99.90
21489;DHT22;10906;45.194;5.684;2024-03-07T07:43:25;4.80;99.90
21489;DHT22;10906;45.194;5.684;2024-03-07T07:46:09;5.70;99.90
21489;DHT22;10906;45.194;5.684;2024-03-07T07:48:54;5.60;99.90
21489;DHT22;10906;45.194;5.684;2024-03-07T07:51:39;5.40;99.90
21489;DHT22;10906;45.194;5.684;2024-03-07T07:54:27;5.00;99.90
21489;DHT22;10906;45.194;5.684;2024-03-07T07:57:11;5.50;99.90
21489;DHT22;10906;45.194;5.684;2024-03-07T07:59:56;4.70;99.90
21489;DHT22;10906;45.194;5.684;2024-03-07T08:02:40;6.10;99.90
21489;DHT22;10906;45.194;5.684;2024-03-07T08:05:27;6.30;99.90
21489;DHT22;10906;45.194;5.684;2024-03-07T08:08:11;6.50;99.90
21489;DHT22;10906;45.194;5.684;2024-03-07T08:10:58;6.70;99.90
21489;DHT22;10906;45.194;5.684;2024-03-07T08:13:43;6.40;99.90
21489;DHT22;10906;45.194;5.684;2024-03-07T08:16:28;6.30;99.90
21489;DHT22;10906;45.194;5.684;2024-03-07T08:19:13;6.60;99.90
21489;DHT22;10906;45.194;5.684;2024-03-07T08:21:58;6.10;99.90
21489;DHT22;10906;45.194;5.684;2024-03-07T08:24:43;7.40;99.90
21489;DHT22;10906;45.194;5.684;2024-03-07T08:27:28;7.00;99.90
21489;DHT22;10906;45.194;5.684;2024-03-07T08:30:14;7.40;99.90
21489;DHT22;10906;45.194;5.684;2024-03-07T08:32:59;6.90;99.90
21489;DHT22;10906;45.194;5.684;2024-03-07T08:35:46;8.40;99.90
21489;DHT22;10906;45.194;5.684;2024-03-07T08:38:31;7.70;99.90
21489;DHT22;10906;45.194;5.684;2024-03-07T08:41:17;7.60;99.90
21489;DHT22;10906;45.194;5.684;2024-03-07T08:44:02;7.90;99.90
21489;DHT22;10906;45.194;5.684;2024-03-07T08:46:46;8.00;99.90
21489;DHT22;10906;45.194;5.684;2024-03-07T08:49:31;7.90;99.90
21489;DHT22;10906;45.194;5.684;2024-03-07T08:52:15;9.20;99.90
21489;DHT22;10906;45.194;5.684;2024-03-07T08:55:00;8.20;99.90
21489;DHT22;10906;45.194;5.684;2024-03-07T08:57:45;8.80;99.90
21489;DHT22;10906;45.194;5.684;2024-03-07T09:00:30;8.50;99.90
21489;DHT22;10906;45.194;5.684;2024-03-07T09:03:16;8.80;99.90
21489;DHT22;10906;45.194;5.684;2024-03-07T09:06:03;8.90;99.90
21489;DHT22;10906;45.194;5.684;2024-03-07T09:08:47;9.10;99.90
21489;DHT22;10906;45.194;5.684;2024-03-07T09:11:32;9.70;99.90
21489;DHT22;10906;45.194;5.684;2024-03-07T09:14:16;9.60;99.90
21489;DHT22;10906;45.194;5.684;2024-03-07T09:17:01;9.70;99.90
21489;DHT22;10906;45.194;5.684;2024-03-07T09:19:46;10.10;99.90
21489;DHT22;10906;45.194;5.684;2024-03-07T09:22:31;9.80;99.90
21489;DHT22;10906;45.194;5.684;2024-03-07T09:25:16;9.90;99.90
21489;DHT22;10906;45.194;5.684;2024-03-07T09:28:00;10.10;99.90
21489;DHT22;10906;45.194;5.684;2024-03-07T09:30:45;10.50;99.90
21489;DHT22;10906;45.194;5.684;2024-03-07T09:33:29;10.10;99.90
21489;DHT22;10906;45.194;5.684;2024-03-07T09:36:15;10.20;99.70
21489;DHT22;10906;45.194;5.684;2024-03-07T09:39:00;10.50;99.30
21489;DHT22;10906;45.194;5.684;2024-03-07T09:41:44;10.70;99.20
21489;DHT22;10906;45.194;5.684;2024-03-07T09:44:29;10.70;99.40
21489;DHT22;10906;45.194;5.684;2024-03-07T09:47:15;11.00;98.30
21489;DHT22;10906;45.194;5.684;2024-03-07T09:50:00;10.10;98.10
21489;DHT22;10906;45.194;5.684;2024-03-07T09:52:46;11.40;98.50
21489;DHT22;10906;45.194;5.684;2024-03-07T09:55:33;11.60;98.10
21489;DHT22;10906;45.194;5.684;2024-03-07T09:58:18;11.70;97.40
21489;DHT22;10906;45.194;5.684;2024-03-07T10:01:06;12.10;97.10
21489;DHT22;10906;45.194;5.684;2024-03-07T10:04:01;11.80;96.90
21489;DHT22;10906;45.194;5.684;2024-03-07T10:06:54;11.70;96.20
21489;DHT22;10906;45.194;5.684;2024-03-07T10:09:40;11.70;97.00
21489;DHT22;10906;45.194;5.684;2024-03-07T10:12:25;11.90;96.80
21489;DHT22;10906;45.194;5.684;2024-03-07T10:15:11;12.10;96.60
21489;DHT22;10906;45.194;5.684;2024-03-07T10:17:57;12.30;96.40
21489;DHT22;10906;45.194;5.684;2024-03-07T10:20:44;12.50;95.70
21489;DHT22;10906;45.194;5.684;2024-03-07T10:23:29;12.60;95.90
21489;DHT22;10906;45.194;5.684;2024-03-07T10:26:15;12.50;95.70
21489;DHT22;10906;45.194;5.684;2024-03-07T10:29:01;12.50;95.80
21489;DHT22;10906;45.194;5.684;2024-03-07T10:31:47;12.50;95.40
21489;DHT22;10906;45.194;5.684;2024-03-07T10:34:36;12.50;95.40
21489;DHT22;10906;45.194;5.684;2024-03-07T10:37:20;12.80;94.90
21489;DHT22;10906;45.194;5.684;2024-03-07T10:40:05;12.90;94.90
21489;DHT22;10906;45.194;5.684;2024-03-07T10:42:59;13.10;94.80
21489;DHT22;10906;45.194;5.684;2024-03-07T10:45:48;13.20;94.30
21489;DHT22;10906;45.194;5.684;2024-03-07T10:48:37;13.20;94.30
21489;DHT22;10906;45.194;5.684;2024-03-07T10:51:30;13.40;93.90
21489;DHT22;10906;45.194;5.684;2024-03-07T10:54:24;13.40;93.60
21489;DHT22;10906;45.194;5.684;2024-03-07T10:57:31;13.40;93.90
21489;DHT22;10906;45.194;5.684;2024-03-07T11:00:19;13.60;92.80
21489;DHT22;10906;45.194;5.684;2024-03-07T11:03:20;13.90;92.90
21489;DHT22;10906;45.194;5.684;2024-03-07T11:06:06;14.00;92.70
21489;DHT22;10906;45.194;5.684;2024-03-07T11:08:55;13.90;92.10
21489;DHT22;10906;45.194;5.684;2024-03-07T11:11:41;13.90;91.80
21489;DHT22;10906;45.194;5.684;2024-03-07T11:14:27;13.70;91.60
21489;DHT22;10906;45.194;5.684;2024-03-07T11:17:12;13.70;91.50
21489;DHT22;10906;45.194;5.684;2024-03-07T11:20:20;13.90;90.90
21489;DHT22;10906;45.194;5.684;2024-03-07T11:26:09;14.20;88.10
21489;DHT22;10906;45.194;5.684;2024-03-07T11:28:53;14.10;90.10
21489;DHT22;10906;45.194;5.684;2024-03-07T11:31:39;13.90;90.30
21489;DHT22;10906;45.194;5.684;2024-03-07T11:34:29;14.20;89.80
21489;DHT22;10906;45.194;5.684;2024-03-07T11:37:37;14.60;88.60
21489;DHT22;10906;45.194;5.684;2024-03-07T11:43:13;14.80;88.20
21489;DHT22;10906;45.194;5.684;2024-03-07T11:45:57;14.90;87.10
21489;DHT22;10906;45.194;5.684;2024-03-07T11:48:42;15.10;86.70
21489;DHT22;10906;45.194;5.684;2024-03-07T11:51:26;15.30;84.80
21489;DHT22;10906;45.194;5.684;2024-03-07T11:54:13;15.20;85.50
21489;DHT22;10906;45.194;5.684;2024-03-07T11:56:58;15.50;84.00
21489;DHT22;10906;45.194;5.684;2024-03-07T11:59:43;15.60;83.80
21489;DHT22;10906;45.194;5.684;2024-03-07T12:02:30;15.60;83.30
21489;DHT22;10906;45.194;5.684;2024-03-07T12:05:15;15.80;83.40
21489;DHT22;10906;45.194;5.684;2024-03-07T12:08:01;16.00;82.50
21489;DHT22;10906;45.194;5.684;2024-03-07T12:10:45;16.10;80.40
21489;DHT22;10906;45.194;5.684;2024-03-07T12:13:30;16.00;80.30
21489;DHT22;10906;45.194;5.684;2024-03-07T12:16:14;16.20;80.70
21489;DHT22;10906;45.194;5.684;2024-03-07T12:19:00;16.30;80.00
21489;DHT22;10906;45.194;5.684;2024-03-07T12:21:49;16.30;80.80
21489;DHT22;10906;45.194;5.684;2024-03-07T12:24:34;16.50;79.70
21489;DHT22;10906;45.194;5.684;2024-03-07T12:27:18;16.30;78.50
21489;DHT22;10906;45.194;5.684;2024-03-07T12:30:15;16.50;78.40
21489;DHT22;10906;45.194;5.684;2024-03-07T12:33:01;16.50;77.30
21489;DHT22;10906;45.194;5.684;2024-03-07T12:35:54;16.60;77.90
21489;DHT22;10906;45.194;5.684;2024-03-07T12:38:53;16.50;77.00
21489;DHT22;10906;45.194;5.684;2024-03-07T12:41:38;16.60;75.90
21489;DHT22;10906;45.194;5.684;2024-03-07T12:44:24;16.70;76.00
21489;DHT22;10906;45.194;5.684;2024-03-07T12:47:12;16.40;75.30
21489;DHT22;10906;45.194;5.684;2024-03-07T12:49:57;16.80;76.10
21489;DHT22;10906;45.194;5.684;2024-03-07T12:52:43;17.30;73.70
21489;DHT22;10906;45.194;5.684;2024-03-07T12:55:27;17.50;74.10
21489;DHT22;10906;45.194;5.684;2024-03-07T12:58:12;17.70;73.90
21489;DHT22;10906;45.194;5.684;2024-03-07T13:00:57;17.80;72.00
21489;DHT22;10906;45.194;5.684;2024-03-07T13:03:41;18.10;72.80
21489;DHT22;10906;45.194;5.684;2024-03-07T13:06:28;18.30;71.30
21489;DHT22;10906;45.194;5.684;2024-03-07T13:09:13;18.30;68.90
21489;DHT22;10906;45.194;5.684;2024-03-07T13:11:58;18.40;69.10
21489;DHT22;10906;45.194;5.684;2024-03-07T13:14:44;18.60;66.10
21489;DHT22;10906;45.194;5.684;2024-03-07T13:17:29;18.50;66.80
21489;DHT22;10906;45.194;5.684;2024-03-07T13:20:13;18.40;66.30
21489;DHT22;10906;45.194;5.684;2024-03-07T13:23:00;18.60;67.40
21489;DHT22;10906;45.194;5.684;2024-03-07T13:25:45;18.70;66.60
21489;DHT22;10906;45.194;5.684;2024-03-07T13:28:30;18.90;65.80
21489;DHT22;10906;45.194;5.684;2024-03-07T13:31:14;19.00;64.10
21489;DHT22;10906;45.194;5.684;2024-03-07T13:34:01;19.00;64.20
21489;DHT22;10906;45.194;5.684;2024-03-07T13:36:49;18.90;64.30
21489;DHT22;10906;45.194;5.684;2024-03-07T13:39:34;18.90;64.00
21489;DHT22;10906;45.194;5.684;2024-03-07T13:42:18;18.70;64.80
21489;DHT22;10906;45.194;5.684;2024-03-07T13:45:03;18.80;65.90
21489;DHT22;10906;45.194;5.684;2024-03-07T13:47:50;18.70;65.70
21489;DHT22;10906;45.194;5.684;2024-03-07T13:50:37;18.70;65.80
21489;DHT22;10906;45.194;5.684;2024-03-07T13:53:31;18.80;65.50
21489;DHT22;10906;45.194;5.684;2024-03-07T13:59:37;19.00;63.20
21489;DHT22;10906;45.194;5.684;2024-03-07T14:03:08;19.10;62.80
21489;DHT22;10906;45.194;5.684;2024-03-07T14:24:58;19.10;62.70
21489;DHT22;10906;45.194;5.684;2024-03-07T14:31:09;19.20;61.20
21489;DHT22;10906;45.194;5.684;2024-03-07T14:36:53;19.70;62.00
21489;DHT22;10906;45.194;5.684;2024-03-07T14:39:41;20.00;61.90
21489;DHT22;10906;45.194;5.684;2024-03-07T14:42:25;20.10;61.70
21489;DHT22;10906;45.194;5.684;2024-03-07T14:45:12;20.10;60.80
21489;DHT22;10906;45.194;5.684;2024-03-07T14:47:57;20.20;60.80
21489;DHT22;10906;45.194;5.684;2024-03-07T14:50:44;20.50;60.10
21489;DHT22;10906;45.194;5.684;2024-03-07T14:53:30;20.80;60.40
21489;DHT22;10906;45.194;5.684;2024-03-07T14:56:15;21.10;60.20
21489;DHT22;10906;45.194;5.684;2024-03-07T14:59:00;21.30;58.80
21489;DHT22;10906;45.194;5.684;2024-03-07T15:01:46;21.20;58.70
21489;DHT22;10906;45.194;5.684;2024-03-07T15:04:32;21.40;58.20
21489;DHT22;10906;45.194;5.684;2024-03-07T15:07:17;21.60;57.80
21489;DHT22;10906;45.194;5.684;2024-03-07T15:10:02;21.60;57.40
21489;DHT22;10906;45.194;5.684;2024-03-07T15:12:50;21.70;57.30
21489;DHT22;10906;45.194;5.684;2024-03-07T15:15:35;21.80;55.80
21489;DHT22;10906;45.194;5.684;2024-03-07T15:18:19;21.90;56.20
21489;DHT22;10906;45.194;5.684;2024-03-07T15:21:04;21.90;55.80
21489;DHT22;10906;45.194;5.684;2024-03-07T15:23:49;22.20;55.20
21489;DHT22;10906;45.194;5.684;2024-03-07T15:26:33;22.20;55.00
21489;DHT22;10906;45.194;5.684;2024-03-07T15:29:19;22.30;54.50
21489;DHT22;10906;45.194;5.684;2024-03-07T15:32:06;22.30;54.20
21489;DHT22;10906;45.194;5.684;2024-03-07T15:34:50;22.40;54.00
21489;DHT22;10906;45.194;5.684;2024-03-07T15:37:39;22.50;53.70
21489;DHT22;10906;45.194;5.684;2024-03-07T15:40:25;22.40;53.00
21489;DHT22;10906;45.194;5.684;2024-03-07T15:43:11;21.70;53.20
21489;DHT22;10906;45.194;5.684;2024-03-07T15:45:57;20.80;54.00
21489;DHT22;10906;45.194;5.684;2024-03-07T15:48:46;20.30;54.70
21489;DHT22;10906;45.194;5.684;2024-03-07T15:51:32;20.40;55.00
21489;DHT22;10906;45.194;5.684;2024-03-07T15:54:18;20.60;54.70
21489;DHT22;10906;45.194;5.684;2024-03-07T15:57:03;21.30;54.50
21489;DHT22;10906;45.194;5.684;2024-03-07T15:59:47;22.30;53.80
21489;DHT22;10906;45.194;5.684;2024-03-07T16:02:32;22.60;52.80
21489;DHT22;10906;45.194;5.684;2024-03-07T16:05:17;22.80;52.60
21489;DHT22;10906;45.194;5.684;2024-03-07T16:08:06;21.80;52.10
21489;DHT22;10906;45.194;5.684;2024-03-07T16:10:55;19.90;52.40
21489;DHT22;10906;45.194;5.684;2024-03-07T16:13:39;18.30;53.70
21489;DHT22;10906;45.194;5.684;2024-03-07T16:16:24;17.30;55.10
21489;DHT22;10906;45.194;5.684;2024-03-07T16:19:08;16.60;55.50
21489;DHT22;10906;45.194;5.684;2024-03-07T16:21:54;16.10;56.30
21489;DHT22;10906;45.194;5.684;2024-03-07T16:24:39;15.70;56.90
21489;DHT22;10906;45.194;5.684;2024-03-07T16:27:23;15.50;58.70
21489;DHT22;10906;45.194;5.684;2024-03-07T16:30:10;15.30;58.60
21489;DHT22;10906;45.194;5.684;2024-03-07T16:32:55;15.20;58.90
21489;DHT22;10906;45.194;5.684;2024-03-07T16:35:46;14.90;58.60
21489;DHT22;10906;45.194;5.684;2024-03-07T16:38:30;14.70;59.30
21489;DHT22;10906;45.194;5.684;2024-03-07T16:41:18;14.40;59.50
21489;DHT22;10906;45.194;5.684;2024-03-07T16:44:05;14.20;61.20
21489;DHT22;10906;45.194;5.684;2024-03-07T16:46:49;14.10;61.60
21489;DHT22;10906;45.194;5.684;2024-03-07T16:49:37;14.10;63.80
21489;DHT22;10906;45.194;5.684;2024-03-07T16:52:21;13.90;64.20
21489;DHT22;10906;45.194;5.684;2024-03-07T16:55:08;13.80;64.10
21489;DHT22;10906;45.194;5.684;2024-03-07T16:58:13;13.60;63.50
21489;DHT22;10906;45.194;5.684;2024-03-07T17:05:15;13.20;65.20
21489;DHT22;10906;45.194;5.684;2024-03-07T17:11:30;13.00;66.60
21489;DHT22;10906;45.194;5.684;2024-03-07T17:14:35;12.70;66.00
21489;DHT22;10906;45.194;5.684;2024-03-07T17:17:32;12.40;68.00
21489;DHT22;10906;45.194;5.684;2024-03-07T17:21:15;12.70;69.20
21489;DHT22;10906;45.194;5.684;2024-03-07T17:24:39;12.60;70.90
21489;DHT22;10906;45.194;5.684;2024-03-07T17:27:39;12.40;71.50
21489;DHT22;10906;45.194;5.684;2024-03-07T17:31:25;11.90;71.60
21489;DHT22;10906;45.194;5.684;2024-03-07T17:34:32;12.20;73.20
21489;DHT22;10906;45.194;5.684;2024-03-07T17:37:32;12.10;73.70
21489;DHT22;10906;45.194;5.684;2024-03-07T17:40:39;12.00;74.00
21489;DHT22;10906;45.194;5.684;2024-03-07T17:43:38;11.90;74.90
21489;DHT22;10906;45.194;5.684;2024-03-07T17:46:33;11.50;75.70
21489;DHT22;10906;45.194;5.684;2024-03-07T17:49:24;11.90;78.20
21489;DHT22;10906;45.194;5.684;2024-03-07T17:52:19;11.50;75.20
21489;DHT22;10906;45.194;5.684;2024-03-07T17:55:39;11.50;75.30
21489;DHT22;10906;45.194;5.684;2024-03-07T17:58:57;11.30;75.80
21489;DHT22;10906;45.194;5.684;2024-03-07T18:08:37;11.90;78.30
21489;DHT22;10906;45.194;5.684;2024-03-07T18:11:21;11.00;76.30
21489;DHT22;10906;45.194;5.684;2024-03-07T18:14:07;10.90;77.40
21489;DHT22;10906;45.194;5.684;2024-03-07T18:16:52;10.90;77.00
21489;DHT22;10906;45.194;5.684;2024-03-07T18:19:36;10.90;77.40
21489;DHT22;10906;45.194;5.684;2024-03-07T18:22:21;10.80;77.80
21489;DHT22;10906;45.194;5.684;2024-03-07T18:25:06;10.70;77.60
21489;DHT22;10906;45.194;5.684;2024-03-07T18:27:52;10.70;78.70
21489;DHT22;10906;45.194;5.684;2024-03-07T18:30:38;10.60;78.80
21489;DHT22;10906;45.194;5.684;2024-03-07T18:33:23;10.60;78.80
21489;DHT22;10906;45.194;5.684;2024-03-07T18:36:09;10.50;78.80
21489;DHT22;10906;45.194;5.684;2024-03-07T18:38:56;10.40;78.20
21489;DHT22;10906;45.194;5.684;2024-03-07T18:41:41;10.40;79.60
21489;DHT22;10906;45.194;5.684;2024-03-07T18:44:29;10.30;80.40
21489;DHT22;10906;45.194;5.684;2024-03-07T18:47:18;10.30;80.10
21489;DHT22;10906;45.194;5.684;2024-03-07T18:50:03;10.30;80.50
21489;DHT22;10906;45.194;5.684;2024-03-07T18:52:54;10.10;80.30
21489;DHT22;10906;45.194;5.684;2024-03-07T18:55:42;10.00;80.90
21489;DHT22;10906;45.194;5.684;2024-03-07T18:58:30;10.00;81.00
21489;DHT22;10906;45.194;5.684;2024-03-07T19:01:15;9.90;82.20
21489;DHT22;10906;45.194;5.684;2024-03-07T19:04:02;9.90;82.40
21489;DHT22;10906;45.194;5.684;2024-03-07T19:06:50;9.80;83.20
21489;DHT22;10906;45.194;5.684;2024-03-07T19:09:41;9.70;83.50
21489;DHT22;10906;45.194;5.684;2024-03-07T19:12:26;9.70;84.10
21489;DHT22;10906;45.194;5.684;2024-03-07T19:15:11;9.70;84.80
21489;DHT22;10906;45.194;5.684;2024-03-07T19:17:55;9.60;84.70
21489;DHT22;10906;45.194;5.684;2024-03-07T19:20:45;9.50;84.80
21489;DHT22;10906;45.194;5.684;2024-03-07T19:23:30;9.40;85.30
21489;DHT22;10906;45.194;5.684;2024-03-07T19:26:14;9.20;85.60
21489;DHT22;10906;45.194;5.684;2024-03-07T19:29:03;9.30;86.30
21489;DHT22;10906;45.194;5.684;2024-03-07T19:31:51;7.80;85.30
21489;DHT22;10906;45.194;5.684;2024-03-07T19:34:41;9.10;86.80
21489;DHT22;10906;45.194;5.684;2024-03-07T19:37:26;9.10;87.10
21489;DHT22;10906;45.194;5.684;2024-03-07T19:40:14;9.00;87.70
21489;DHT22;10906;45.194;5.684;2024-03-07T19:43:00;8.90;87.70
21489;DHT22;10906;45.194;5.684;2024-03-07T19:45:45;8.90;88.30
21489;DHT22;10906;45.194;5.684;2024-03-07T19:48:30;8.80;88.20
21489;DHT22;10906;45.194;5.684;2024-03-07T19:51:14;8.90;88.80
21489;DHT22;10906;45.194;5.684;2024-03-07T19:53:59;8.80;88.70
21489;DHT22;10906;45.194;5.684;2024-03-07T19:56:43;8.80;89.00
21489;DHT22;10906;45.194;5.684;2024-03-07T19:59:28;8.40;87.90
21489;DHT22;10906;45.194;5.684;2024-03-07T20:02:12;8.60;88.50
21489;DHT22;10906;45.194;5.684;2024-03-07T20:04:57;8.60;89.30
21489;DHT22;10906;45.194;5.684;2024-03-07T20:07:44;8.50;89.30
21489;DHT22;10906;45.194;5.684;2024-03-07T20:10:45;8.40;89.60
21489;DHT22;10906;45.194;5.684;2024-03-07T20:14:04;8.30;90.10
21489;DHT22;10906;45.194;5.684;2024-03-07T20:16:51;8.20;90.40
21489;DHT22;10906;45.194;5.684;2024-03-07T20:19:40;8.20;90.60
21489;DHT22;10906;45.194;5.684;2024-03-07T20:22:30;8.50;91.00
21489;DHT22;10906;45.194;5.684;2024-03-07T20:25:15;8.70;91.10
21489;DHT22;10906;45.194;5.684;2024-03-07T20:28:01;8.20;91.00
21489;DHT22;10906;45.194;5.684;2024-03-07T20:30:46;8.20;91.50
21489;DHT22;10906;45.194;5.684;2024-03-07T20:33:30;8.20;91.30
21489;DHT22;10906;45.194;5.684;2024-03-07T20:36:15;8.10;91.10
21489;DHT22;10906;45.194;5.684;2024-03-07T20:39:03;8.00;91.30
21489;DHT22;10906;45.194;5.684;2024-03-07T20:41:59;8.10;91.60
21489;DHT22;10906;45.194;5.684;2024-03-07T20:44:46;8.10;91.80
21489;DHT22;10906;45.194;5.684;2024-03-07T20:47:31;8.40;92.00
21489;DHT22;10906;45.194;5.684;2024-03-07T20:50:17;8.10;92.10
21489;DHT22;10906;45.194;5.684;2024-03-07T20:53:08;8.10;92.10
21489;DHT22;10906;45.194;5.684;2024-03-07T20:55:53;8.00;92.10
21489;DHT22;10906;45.194;5.684;2024-03-07T20:58:38;8.00;92.60
21489;DHT22;10906;45.194;5.684;2024-03-07T21:01:22;8.00;92.60
21489;DHT22;10906;45.194;5.684;2024-03-07T21:04:11;7.90;92.80
21489;DHT22;10906;45.194;5.684;2024-03-07T21:06:57;7.90;92.80
21489;DHT22;10906;45.194;5.684;2024-03-07T21:09:42;7.70;93.10
21489;DHT22;10906;45.194;5.684;2024-03-07T21:12:26;7.80;93.20
21489;DHT22;10906;45.194;5.684;2024-03-07T21:15:11;7.80;93.20
21489;DHT22;10906;45.194;5.684;2024-03-07T21:17:59;7.80;93.40
21489;DHT22;10906;45.194;5.684;2024-03-07T21:20:47;7.80;93.50
21489;DHT22;10906;45.194;5.684;2024-03-07T21:23:32;7.80;93.40
21489;DHT22;10906;45.194;5.684;2024-03-07T21:26:19;7.70;93.50
21489;DHT22;10906;45.194;5.684;2024-03-07T21:29:04;7.70;93.60
21489;DHT22;10906;45.194;5.684;2024-03-07T21:35:14;7.70;93.80
21489;DHT22;10906;45.194;5.684;2024-03-07T21:38:14;7.60;94.00
21489;DHT22;10906;45.194;5.684;2024-03-07T21:41:01;7.60;94.00
21489;DHT22;10906;45.194;5.684;2024-03-07T21:43:49;7.60;94.10
21489;DHT22;10906;45.194;5.684;2024-03-07T21:46:45;6.90;94.10
21489;DHT22;10906;45.194;5.684;2024-03-07T21:49:32;7.60;94.20
21489;DHT22;10906;45.194;5.684;2024-03-07T21:52:33;7.60;94.00
21489;DHT22;10906;45.194;5.684;2024-03-07T21:55:24;7.60;94.20
21489;DHT22;10906;45.194;5.684;2024-03-07T21:58:13;7.60;94.00
21489;DHT22;10906;45.194;5.684;2024-03-07T22:00:58;7.60;94.10
21489;DHT22;10906;45.194;5.684;2024-03-07T22:03:44;7.60;94.20
21489;DHT22;10906;45.194;5.684;2024-03-07T22:06:32;7.60;94.10
21489;DHT22;10906;45.194;5.684;2024-03-07T22:09:17;7.70;94.20
21489;DHT22;10906;45.194;5.684;2024-03-07T22:12:01;7.70;94.30
21489;DHT22;10906;45.194;5.684;2024-03-07T22:14:45;7.60;94.30
21489;DHT22;10906;45.194;5.684;2024-03-07T22:17:33;7.70;94.10
21489;DHT22;10906;45.194;5.684;2024-03-07T22:20:20;7.80;94.30
21489;DHT22;10906;45.194;5.684;2024-03-07T22:23:09;7.80;94.20
21489;DHT22;10906;45.194;5.684;2024-03-07T22:25:55;7.80;94.60
21489;DHT22;10906;45.194;5.684;2024-03-07T22:28:39;7.80;94.40
21489;DHT22;10906;45.194;5.684;2024-03-07T22:31:24;7.70;94.70
21489;DHT22;10906;45.194;5.684;2024-03-07T22:34:09;7.60;94.70
21489;DHT22;10906;45.194;5.684;2024-03-07T22:36:54;7.60;94.90
21489;DHT22;10906;45.194;5.684;2024-03-07T22:39:40;7.50;95.00
21489;DHT22;10906;45.194;5.684;2024-03-07T22:42:33;6.70;94.70
21489;DHT22;10906;45.194;5.684;2024-03-07T22:45:18;7.40;95.00
21489;DHT22;10906;45.194;5.684;2024-03-07T22:48:02;7.40;95.10
21489;DHT22;10906;45.194;5.684;2024-03-07T22:50:47;7.40;95.30
21489;DHT22;10906;45.194;5.684;2024-03-07T22:53:32;7.50;95.50
21489;DHT22;10906;45.194;5.684;2024-03-07T22:56:16;7.50;95.30
21489;DHT22;10906;45.194;5.684;2024-03-07T22:59:01;7.50;95.70
